sensor_id;sensor_type;location;lat;lon;timestamp;P1;durP1;ratioP1;P2;durP2;ratioP2
3811;SDS011;1921;49.368;11.068;2023-04-25T00:01:31;50.23;;;45.53;;
3811;SDS011;1921;49.368;11.068;2023-04-25T00:03:58;49.70;;;45.10;;
3811;SDS011;1921;49.368;11.068;2023-04-25T00:06:26;50.43;;;45.73;;
3811;SDS011;1921;49.368;11.068;2023-04-25T00:08:52;50.37;;;45.67;;
3811;SDS011;1921;49.368;11.068;2023-04-25T00:11:18;51.00;;;46.10;;
3811;SDS011;1921;49.368;11.068;2023-04-25T00:13:44;49.53;;;44.90;;
3811;SDS011;1921;49.368;11.068;2023-04-25T00:16:11;50.50;;;45.90;;
3811;SDS011;1921;49.368;11.068;2023-04-25T00:18:39;50.20;;;45.50;;
3811;SDS011;1921;49.368;11.068;2023-04-25T00:21:05;50.40;;;45.80;;
3811;SDS011;1921;49.368;11.068;2023-04-25T00:23:31;50.17;;;45.47;;
3811;SDS011;1921;49.368;11.068;2023-04-25T00:25:57;50.70;;;46.00;;
3811;SDS011;1921;49.368;11.068;2023-04-25T00:28:22;49.43;;;44.90;;
3811;SDS011;1921;49.368;11.068;2023-04-25T00:30:48;50.50;;;45.80;;
3811;SDS011;1921;49.368;11.068;2023-04-25T00:33:14;49.60;;;45.00;;
3811;SDS011;1921;49.368;11.068;2023-04-25T00:35:40;50.53;;;45.80;;
3811;SDS011;1921;49.368;11.068;2023-04-25T00:38:05;50.47;;;45.70;;
3811;SDS011;1921;49.368;11.068;2023-04-25T00:40:31;50.30;;;45.60;;
3811;SDS011;1921;49.368;11.068;2023-04-25T00:42:57;49.93;;;45.23;;
3811;SDS011;1921;49.368;11.068;2023-04-25T00:45:22;51.23;;;46.20;;
3811;SDS011;1921;49.368;11.068;2023-04-25T00:47:57;50.13;;;45.53;;
3811;SDS011;1921;49.368;11.068;2023-04-25T00:50:23;50.40;;;45.80;;
3811;SDS011;1921;49.368;11.068;2023-04-25T00:52:49;50.07;;;45.47;;
3811;SDS011;1921;49.368;11.068;2023-04-25T00:55:15;49.67;;;45.17;;
3811;SDS011;1921;49.368;11.068;2023-04-25T00:57:42;50.00;;;45.30;;
3811;SDS011;1921;49.368;11.068;2023-04-25T01:00:08;50.17;;;45.57;;
3811;SDS011;1921;49.368;11.068;2023-04-25T01:02:36;50.27;;;45.47;;
3811;SDS011;1921;49.368;11.068;2023-04-25T01:05:02;50.10;;;45.50;;
3811;SDS011;1921;49.368;11.068;2023-04-25T01:07:29;50.23;;;45.63;;
3811;SDS011;1921;49.368;11.068;2023-04-25T01:09:55;51.10;;;46.20;;
3811;SDS011;1921;49.368;11.068;2023-04-25T01:12:21;50.97;;;46.00;;
3811;SDS011;1921;49.368;11.068;2023-04-25T01:14:48;50.30;;;45.50;;
3811;SDS011;1921;49.368;11.068;2023-04-25T01:17:14;50.87;;;46.03;;
3811;SDS011;1921;49.368;11.068;2023-04-25T01:19:41;50.47;;;45.70;;
3811;SDS011;1921;49.368;11.068;2023-04-25T01:22:06;50.67;;;45.80;;
3811;SDS011;1921;49.368;11.068;2023-04-25T01:24:35;51.17;;;46.27;;
3811;SDS011;1921;49.368;11.068;2023-04-25T01:27:01;51.00;;;46.20;;
3811;SDS011;1921;49.368;11.068;2023-04-25T01:29:28;50.03;;;45.53;;
3811;SDS011;1921;49.368;11.068;2023-04-25T01:31:54;50.60;;;45.90;;
3811;SDS011;1921;49.368;11.068;2023-04-25T01:34:20;50.10;;;45.50;;
3811;SDS011;1921;49.368;11.068;2023-04-25T01:36:50;50.90;;;46.30;;
3811;SDS011;1921;49.368;11.068;2023-04-25T01:39:16;50.43;;;45.73;;
3811;SDS011;1921;49.368;11.068;2023-04-25T01:41:43;51.17;;;46.27;;
3811;SDS011;1921;49.368;11.068;2023-04-25T01:44:10;50.17;;;45.47;;
3811;SDS011;1921;49.368;11.068;2023-04-25T01:46:36;50.33;;;45.73;;
3811;SDS011;1921;49.368;11.068;2023-04-25T01:49:02;51.23;;;46.10;;
3811;SDS011;1921;49.368;11.068;2023-04-25T01:51:28;50.17;;;45.57;;
3811;SDS011;1921;49.368;11.068;2023-04-25T01:53:54;50.70;;;46.00;;
3811;SDS011;1921;49.368;11.068;2023-04-25T01:56:21;50.80;;;46.00;;
3811;SDS011;1921;49.368;11.068;2023-04-25T01:58:46;51.20;;;46.40;;
3811;SDS011;1921;49.368;11.068;2023-04-25T02:01:12;50.80;;;46.13;;
3811;SDS011;1921;49.368;11.068;2023-04-25T02:03:38;51.57;;;46.57;;
3811;SDS011;1921;49.368;11.068;2023-04-25T02:06:04;51.53;;;46.53;;
3811;SDS011;1921;49.368;11.068;2023-04-25T02:08:30;51.77;;;46.80;;
3811;SDS011;1921;49.368;11.068;2023-04-25T02:10:56;52.40;;;47.10;;
3811;SDS011;1921;49.368;11.068;2023-04-25T02:13:22;52.53;;;47.47;;
3811;SDS011;1921;49.368;11.068;2023-04-25T02:15:48;51.90;;;46.93;;
3811;SDS011;1921;49.368;11.068;2023-04-25T02:18:14;51.60;;;46.80;;
3811;SDS011;1921;49.368;11.068;2023-04-25T02:20:41;51.90;;;46.97;;
3811;SDS011;1921;49.368;11.068;2023-04-25T02:23:07;52.20;;;47.23;;
3811;SDS011;1921;49.368;11.068;2023-04-25T02:25:33;52.40;;;47.30;;
3811;SDS011;1921;49.368;11.068;2023-04-25T02:27:59;51.23;;;46.43;;
3811;SDS011;1921;49.368;11.068;2023-04-25T02:30:25;52.30;;;47.10;;
3811;SDS011;1921;49.368;11.068;2023-04-25T02:32:50;52.00;;;47.10;;
3811;SDS011;1921;49.368;11.068;2023-04-25T02:35:16;51.70;;;46.60;;
3811;SDS011;1921;49.368;11.068;2023-04-25T02:37:42;53.07;;;47.60;;
3811;SDS011;1921;49.368;11.068;2023-04-25T02:40:08;51.47;;;46.57;;
3811;SDS011;1921;49.368;11.068;2023-04-25T02:42:34;52.47;;;47.37;;
3811;SDS011;1921;49.368;11.068;2023-04-25T02:45:00;51.80;;;47.00;;
3811;SDS011;1921;49.368;11.068;2023-04-25T02:47:27;52.80;;;47.30;;
3811;SDS011;1921;49.368;11.068;2023-04-25T02:49:53;51.37;;;46.47;;
3811;SDS011;1921;49.368;11.068;2023-04-25T02:52:18;51.70;;;46.70;;
3811;SDS011;1921;49.368;11.068;2023-04-25T02:54:44;51.60;;;46.70;;
3811;SDS011;1921;49.368;11.068;2023-04-25T02:57:10;51.50;;;46.67;;
3811;SDS011;1921;49.368;11.068;2023-04-25T02:59:36;52.10;;;47.00;;
3811;SDS011;1921;49.368;11.068;2023-04-25T03:02:01;51.40;;;46.33;;
3811;SDS011;1921;49.368;11.068;2023-04-25T03:04:27;51.70;;;46.80;;
3811;SDS011;1921;49.368;11.068;2023-04-25T03:06:53;52.23;;;47.23;;
3811;SDS011;1921;49.368;11.068;2023-04-25T03:09:19;52.10;;;46.60;;
3811;SDS011;1921;49.368;11.068;2023-04-25T03:11:45;52.40;;;47.20;;
3811;SDS011;1921;49.368;11.068;2023-04-25T03:14:11;51.50;;;46.60;;
3811;SDS011;1921;49.368;11.068;2023-04-25T03:16:38;51.17;;;46.40;;
3811;SDS011;1921;49.368;11.068;2023-04-25T03:19:04;52.27;;;47.37;;
3811;SDS011;1921;49.368;11.068;2023-04-25T03:21:33;53.30;;;47.60;;
3811;SDS011;1921;49.368;11.068;2023-04-25T03:24:00;51.80;;;46.90;;
3811;SDS011;1921;49.368;11.068;2023-04-25T03:26:28;50.87;;;46.07;;
3811;SDS011;1921;49.368;11.068;2023-04-25T03:28:53;52.17;;;47.00;;
3811;SDS011;1921;49.368;11.068;2023-04-25T03:31:19;52.70;;;47.50;;
3811;SDS011;1921;49.368;11.068;2023-04-25T03:33:45;51.63;;;46.73;;
3811;SDS011;1921;49.368;11.068;2023-04-25T03:36:11;51.37;;;46.23;;
3811;SDS011;1921;49.368;11.068;2023-04-25T03:38:37;51.37;;;46.50;;
3811;SDS011;1921;49.368;11.068;2023-04-25T03:41:02;51.57;;;46.47;;
3811;SDS011;1921;49.368;11.068;2023-04-25T03:43:28;52.70;;;47.70;;
3811;SDS011;1921;49.368;11.068;2023-04-25T03:45:54;52.27;;;47.13;;
3811;SDS011;1921;49.368;11.068;2023-04-25T03:48:20;51.10;;;46.30;;
3811;SDS011;1921;49.368;11.068;2023-04-25T03:50:47;50.47;;;45.77;;
3811;SDS011;1921;49.368;11.068;2023-04-25T03:53:13;52.50;;;47.37;;
3811;SDS011;1921;49.368;11.068;2023-04-25T03:55:38;50.70;;;46.10;;
3811;SDS011;1921;49.368;11.068;2023-04-25T03:58:05;51.00;;;46.20;;
3811;SDS011;1921;49.368;11.068;2023-04-25T04:00:30;52.40;;;47.23;;
3811;SDS011;1921;49.368;11.068;2023-04-25T04:02:56;51.13;;;46.23;;
3811;SDS011;1921;49.368;11.068;2023-04-25T04:05:22;50.77;;;46.07;;
3811;SDS011;1921;49.368;11.068;2023-04-25T04:07:48;51.07;;;46.37;;
3811;SDS011;1921;49.368;11.068;2023-04-25T04:10:14;50.03;;;45.43;;
3811;SDS011;1921;49.368;11.068;2023-04-25T04:12:40;50.80;;;46.10;;
3811;SDS011;1921;49.368;11.068;2023-04-25T04:15:06;50.00;;;45.50;;
3811;SDS011;1921;49.368;11.068;2023-04-25T04:17:32;50.93;;;46.03;;
3811;SDS011;1921;49.368;11.068;2023-04-25T04:19:59;49.67;;;45.10;;
3811;SDS011;1921;49.368;11.068;2023-04-25T04:22:25;50.50;;;45.80;;
3811;SDS011;1921;49.368;11.068;2023-04-25T04:24:50;50.17;;;45.67;;
3811;SDS011;1921;49.368;11.068;2023-04-25T04:27:17;49.57;;;45.17;;
3811;SDS011;1921;49.368;11.068;2023-04-25T04:29:43;49.83;;;45.30;;
3811;SDS011;1921;49.368;11.068;2023-04-25T04:32:09;51.20;;;46.00;;
3811;SDS011;1921;49.368;11.068;2023-04-25T04:34:35;50.37;;;45.80;;
3811;SDS011;1921;49.368;11.068;2023-04-25T04:37:01;49.80;;;45.30;;
3811;SDS011;1921;49.368;11.068;2023-04-25T04:39:27;49.20;;;44.80;;
3811;SDS011;1921;49.368;11.068;2023-04-25T04:41:53;49.53;;;45.03;;
3811;SDS011;1921;49.368;11.068;2023-04-25T04:44:18;52.50;;;46.80;;
3811;SDS011;1921;49.368;11.068;2023-04-25T04:46:45;51.03;;;46.33;;
3811;SDS011;1921;49.368;11.068;2023-04-25T04:49:11;50.77;;;46.07;;
3811;SDS011;1921;49.368;11.068;2023-04-25T04:51:38;50.70;;;45.90;;
3811;SDS011;1921;49.368;11.068;2023-04-25T04:54:06;49.93;;;45.33;;
3811;SDS011;1921;49.368;11.068;2023-04-25T04:56:32;50.37;;;45.70;;
3811;SDS011;1921;49.368;11.068;2023-04-25T04:58:58;51.60;;;46.50;;
3811;SDS011;1921;49.368;11.068;2023-04-25T05:01:24;51.50;;;46.70;;
3811;SDS011;1921;49.368;11.068;2023-04-25T05:03:51;50.60;;;45.90;;
3811;SDS011;1921;49.368;11.068;2023-04-25T05:06:20;49.87;;;45.07;;
3811;SDS011;1921;49.368;11.068;2023-04-25T05:08:46;51.43;;;46.37;;
3811;SDS011;1921;49.368;11.068;2023-04-25T05:11:12;50.80;;;46.10;;
3811;SDS011;1921;49.368;11.068;2023-04-25T05:13:37;50.63;;;45.93;;
3811;SDS011;1921;49.368;11.068;2023-04-25T05:16:03;52.53;;;47.30;;
3811;SDS011;1921;49.368;11.068;2023-04-25T05:18:29;50.73;;;46.07;;
3811;SDS011;1921;49.368;11.068;2023-04-25T05:20:55;51.23;;;46.30;;
3811;SDS011;1921;49.368;11.068;2023-04-25T05:23:20;52.30;;;47.27;;
3811;SDS011;1921;49.368;11.068;2023-04-25T05:25:46;52.13;;;47.20;;
3811;SDS011;1921;49.368;11.068;2023-04-25T05:28:12;51.10;;;46.30;;
3811;SDS011;1921;49.368;11.068;2023-04-25T05:30:38;51.40;;;46.50;;
3811;SDS011;1921;49.368;11.068;2023-04-25T05:33:04;52.33;;;47.33;;
3811;SDS011;1921;49.368;11.068;2023-04-25T05:35:30;51.60;;;46.77;;
3811;SDS011;1921;49.368;11.068;2023-04-25T05:37:56;51.63;;;46.70;;
3811;SDS011;1921;49.368;11.068;2023-04-25T05:40:22;52.20;;;47.07;;
3811;SDS011;1921;49.368;11.068;2023-04-25T05:42:51;53.00;;;47.90;;
3811;SDS011;1921;49.368;11.068;2023-04-25T05:45:16;52.60;;;47.50;;
3811;SDS011;1921;49.368;11.068;2023-04-25T05:47:43;51.87;;;46.97;;
3811;SDS011;1921;49.368;11.068;2023-04-25T05:50:08;52.90;;;47.70;;
3811;SDS011;1921;49.368;11.068;2023-04-25T05:52:34;52.10;;;47.00;;
3811;SDS011;1921;49.368;11.068;2023-04-25T05:55:00;51.63;;;46.73;;
3811;SDS011;1921;49.368;11.068;2023-04-25T05:57:26;52.00;;;47.00;;
3811;SDS011;1921;49.368;11.068;2023-04-25T05:59:53;52.30;;;47.20;;
3811;SDS011;1921;49.368;11.068;2023-04-25T06:02:19;52.50;;;47.30;;
3811;SDS011;1921;49.368;11.068;2023-04-25T06:04:46;52.70;;;47.50;;
3811;SDS011;1921;49.368;11.068;2023-04-25T06:07:14;53.10;;;48.00;;
3811;SDS011;1921;49.368;11.068;2023-04-25T06:09:40;52.70;;;47.50;;
3811;SDS011;1921;49.368;11.068;2023-04-25T06:12:06;52.47;;;47.37;;
3811;SDS011;1921;49.368;11.068;2023-04-25T06:14:33;53.20;;;47.90;;
3811;SDS011;1921;49.368;11.068;2023-04-25T06:16:59;52.70;;;47.50;;
3811;SDS011;1921;49.368;11.068;2023-04-25T06:19:31;53.30;;;48.10;;
3811;SDS011;1921;49.368;11.068;2023-04-25T06:22:00;52.83;;;47.73;;
3811;SDS011;1921;49.368;11.068;2023-04-25T06:24:27;52.07;;;46.97;;
3811;SDS011;1921;49.368;11.068;2023-04-25T06:26:53;53.03;;;47.93;;
3811;SDS011;1921;49.368;11.068;2023-04-25T06:29:19;52.50;;;47.40;;
3811;SDS011;1921;49.368;11.068;2023-04-25T06:31:45;51.67;;;46.77;;
3811;SDS011;1921;49.368;11.068;2023-04-25T06:34:11;52.53;;;47.53;;
3811;SDS011;1921;49.368;11.068;2023-04-25T06:36:37;53.10;;;47.87;;
3811;SDS011;1921;49.368;11.068;2023-04-25T06:39:03;52.50;;;47.30;;
3811;SDS011;1921;49.368;11.068;2023-04-25T06:41:29;53.57;;;48.17;;
3811;SDS011;1921;49.368;11.068;2023-04-25T06:43:55;53.60;;;48.10;;
3811;SDS011;1921;49.368;11.068;2023-04-25T06:46:21;51.17;;;46.30;;
3811;SDS011;1921;49.368;11.068;2023-04-25T06:48:46;54.13;;;48.53;;
3811;SDS011;1921;49.368;11.068;2023-04-25T06:51:12;55.27;;;49.70;;
3811;SDS011;1921;49.368;11.068;2023-04-25T06:53:38;54.07;;;48.27;;
3811;SDS011;1921;49.368;11.068;2023-04-25T06:56:05;55.93;;;50.07;;
3811;SDS011;1921;49.368;11.068;2023-04-25T06:58:31;55.67;;;49.80;;
3811;SDS011;1921;49.368;11.068;2023-04-25T07:00:56;54.70;;;48.90;;
3811;SDS011;1921;49.368;11.068;2023-04-25T07:03:22;57.17;;;51.03;;
3811;SDS011;1921;49.368;11.068;2023-04-25T07:05:48;55.60;;;50.00;;
3811;SDS011;1921;49.368;11.068;2023-04-25T07:08:15;56.57;;;50.50;;
3811;SDS011;1921;49.368;11.068;2023-04-25T07:10:41;53.83;;;48.47;;
3811;SDS011;1921;49.368;11.068;2023-04-25T07:13:07;55.70;;;49.60;;
3811;SDS011;1921;49.368;11.068;2023-04-25T07:15:32;55.90;;;49.60;;
3811;SDS011;1921;49.368;11.068;2023-04-25T07:17:58;56.53;;;50.37;;
3811;SDS011;1921;49.368;11.068;2023-04-25T07:20:24;56.10;;;50.00;;
3811;SDS011;1921;49.368;11.068;2023-04-25T07:22:50;55.60;;;49.90;;
3811;SDS011;1921;49.368;11.068;2023-04-25T07:25:17;55.63;;;49.90;;
3811;SDS011;1921;49.368;11.068;2023-04-25T07:27:42;56.50;;;50.30;;
3811;SDS011;1921;49.368;11.068;2023-04-25T07:30:09;56.50;;;50.57;;
3811;SDS011;1921;49.368;11.068;2023-04-25T07:32:35;56.17;;;50.40;;
3811;SDS011;1921;49.368;11.068;2023-04-25T07:35:01;57.73;;;51.60;;
3811;SDS011;1921;49.368;11.068;2023-04-25T07:37:28;56.57;;;49.90;;
3811;SDS011;1921;49.368;11.068;2023-04-25T07:39:54;57.60;;;50.87;;
3811;SDS011;1921;49.368;11.068;2023-04-25T07:42:20;55.70;;;50.00;;
3811;SDS011;1921;49.368;11.068;2023-04-25T07:44:46;52.73;;;47.67;;
3811;SDS011;1921;49.368;11.068;2023-04-25T07:47:12;53.90;;;48.67;;
3811;SDS011;1921;49.368;11.068;2023-04-25T07:49:38;53.93;;;48.63;;
3811;SDS011;1921;49.368;11.068;2023-04-25T07:52:05;49.03;;;44.63;;
3811;SDS011;1921;49.368;11.068;2023-04-25T07:54:31;50.40;;;45.60;;
3811;SDS011;1921;49.368;11.068;2023-04-25T07:56:57;51.73;;;46.90;;
3811;SDS011;1921;49.368;11.068;2023-04-25T07:59:23;50.03;;;45.47;;
3811;SDS011;1921;49.368;11.068;2023-04-25T08:01:50;50.70;;;45.20;;
3811;SDS011;1921;49.368;11.068;2023-04-25T08:04:16;54.77;;;47.60;;
3811;SDS011;1921;49.368;11.068;2023-04-25T08:06:42;53.47;;;48.10;;
3811;SDS011;1921;49.368;11.068;2023-04-25T08:09:08;53.50;;;48.13;;
3811;SDS011;1921;49.368;11.068;2023-04-25T08:11:35;52.40;;;47.50;;
3811;SDS011;1921;49.368;11.068;2023-04-25T08:14:02;51.73;;;46.80;;
3811;SDS011;1921;49.368;11.068;2023-04-25T08:16:27;53.53;;;48.10;;
3811;SDS011;1921;49.368;11.068;2023-04-25T08:18:53;52.40;;;47.40;;
3811;SDS011;1921;49.368;11.068;2023-04-25T08:21:19;53.07;;;48.00;;
3811;SDS011;1921;49.368;11.068;2023-04-25T08:23:45;50.83;;;45.63;;
3811;SDS011;1921;49.368;11.068;2023-04-25T08:26:11;51.07;;;45.90;;
3811;SDS011;1921;49.368;11.068;2023-04-25T08:28:38;50.77;;;45.97;;
3811;SDS011;1921;49.368;11.068;2023-04-25T08:31:04;51.93;;;46.20;;
3811;SDS011;1921;49.368;11.068;2023-04-25T08:33:29;51.47;;;46.47;;
3811;SDS011;1921;49.368;11.068;2023-04-25T08:35:57;51.97;;;46.87;;
3811;SDS011;1921;49.368;11.068;2023-04-25T08:38:23;52.17;;;47.17;;
3811;SDS011;1921;49.368;11.068;2023-04-25T08:40:49;52.03;;;46.77;;
3811;SDS011;1921;49.368;11.068;2023-04-25T08:43:18;52.77;;;47.27;;
3811;SDS011;1921;49.368;11.068;2023-04-25T08:45:45;51.47;;;46.37;;
3811;SDS011;1921;49.368;11.068;2023-04-25T08:48:12;52.67;;;47.27;;
3811;SDS011;1921;49.368;11.068;2023-04-25T08:50:45;51.73;;;46.63;;
3811;SDS011;1921;49.368;11.068;2023-04-25T08:53:25;51.03;;;46.00;;
3811;SDS011;1921;49.368;11.068;2023-04-25T08:55:53;52.47;;;47.17;;
3811;SDS011;1921;49.368;11.068;2023-04-25T08:58:21;54.07;;;48.37;;
3811;SDS011;1921;49.368;11.068;2023-04-25T09:00:49;53.37;;;47.77;;
3811;SDS011;1921;49.368;11.068;2023-04-25T09:03:19;53.67;;;48.00;;
3811;SDS011;1921;49.368;11.068;2023-04-25T09:05:45;54.23;;;48.50;;
3811;SDS011;1921;49.368;11.068;2023-04-25T09:08:11;54.23;;;47.60;;
3811;SDS011;1921;49.368;11.068;2023-04-25T09:10:37;55.00;;;49.10;;
3811;SDS011;1921;49.368;11.068;2023-04-25T09:15:53;55.80;;;49.90;;
3811;SDS011;1921;49.368;11.068;2023-04-25T09:18:24;55.97;;;49.87;;
3811;SDS011;1921;49.368;11.068;2023-04-25T09:20:54;60.30;;;49.60;;
3811;SDS011;1921;49.368;11.068;2023-04-25T09:23:23;55.60;;;49.67;;
3811;SDS011;1921;49.368;11.068;2023-04-25T09:25:50;56.43;;;50.43;;
3811;SDS011;1921;49.368;11.068;2023-04-25T09:28:25;55.77;;;49.97;;
3811;SDS011;1921;49.368;11.068;2023-04-25T09:31:28;54.77;;;49.00;;
3811;SDS011;1921;49.368;11.068;2023-04-25T09:34:00;54.60;;;48.97;;
3811;SDS011;1921;49.368;11.068;2023-04-25T09:36:29;52.80;;;47.40;;
3811;SDS011;1921;49.368;11.068;2023-04-25T09:38:55;55.27;;;49.33;;
3811;SDS011;1921;49.368;11.068;2023-04-25T09:41:24;53.73;;;48.10;;
3811;SDS011;1921;49.368;11.068;2023-04-25T09:43:50;53.83;;;48.13;;
3811;SDS011;1921;49.368;11.068;2023-04-25T09:46:16;56.07;;;49.97;;
3811;SDS011;1921;49.368;11.068;2023-04-25T09:48:51;54.33;;;48.63;;
3811;SDS011;1921;49.368;11.068;2023-04-25T09:51:18;55.83;;;49.83;;
3811;SDS011;1921;49.368;11.068;2023-04-25T09:53:45;56.20;;;50.23;;
3811;SDS011;1921;49.368;11.068;2023-04-25T09:56:15;56.07;;;50.10;;
3811;SDS011;1921;49.368;11.068;2023-04-25T09:58:41;57.90;;;51.60;;
3811;SDS011;1921;49.368;11.068;2023-04-25T10:01:08;56.80;;;50.60;;
3811;SDS011;1921;49.368;11.068;2023-04-25T10:03:39;57.07;;;50.87;;
3811;SDS011;1921;49.368;11.068;2023-04-25T10:06:13;55.77;;;49.83;;
3811;SDS011;1921;49.368;11.068;2023-04-25T10:08:44;52.47;;;46.97;;
3811;SDS011;1921;49.368;11.068;2023-04-25T10:11:15;55.17;;;49.37;;
3811;SDS011;1921;49.368;11.068;2023-04-25T10:13:42;56.03;;;50.07;;
3811;SDS011;1921;49.368;11.068;2023-04-25T10:16:09;54.40;;;48.70;;
3811;SDS011;1921;49.368;11.068;2023-04-25T10:18:36;53.67;;;48.27;;
3811;SDS011;1921;49.368;11.068;2023-04-25T10:21:03;53.90;;;48.30;;
3811;SDS011;1921;49.368;11.068;2023-04-25T10:23:31;54.33;;;48.67;;
3811;SDS011;1921;49.368;11.068;2023-04-25T10:25:59;54.77;;;49.07;;
3811;SDS011;1921;49.368;11.068;2023-04-25T10:28:25;56.17;;;50.27;;
3811;SDS011;1921;49.368;11.068;2023-04-25T10:33:33;55.30;;;49.40;;
3811;SDS011;1921;49.368;11.068;2023-04-25T10:38:47;55.17;;;49.20;;
3811;SDS011;1921;49.368;11.068;2023-04-25T10:41:21;55.10;;;48.20;;
3811;SDS011;1921;49.368;11.068;2023-04-25T10:43:48;55.33;;;49.40;;
3811;SDS011;1921;49.368;11.068;2023-04-25T10:46:27;54.67;;;48.73;;
3811;SDS011;1921;49.368;11.068;2023-04-25T10:48:57;56.30;;;50.10;;
3811;SDS011;1921;49.368;11.068;2023-04-25T10:54:02;55.80;;;49.70;;
3811;SDS011;1921;49.368;11.068;2023-04-25T11:01:40;55.00;;;49.20;;
3811;SDS011;1921;49.368;11.068;2023-04-25T11:04:21;54.07;;;48.53;;
3811;SDS011;1921;49.368;11.068;2023-04-25T11:07:00;54.10;;;48.50;;
3811;SDS011;1921;49.368;11.068;2023-04-25T11:09:33;53.90;;;48.27;;
3811;SDS011;1921;49.368;11.068;2023-04-25T11:12:00;52.63;;;47.23;;
3811;SDS011;1921;49.368;11.068;2023-04-25T11:14:26;52.83;;;47.33;;
3811;SDS011;1921;49.368;11.068;2023-04-25T11:16:56;53.70;;;47.90;;
3811;SDS011;1921;49.368;11.068;2023-04-25T11:19:23;53.20;;;47.73;;
3811;SDS011;1921;49.368;11.068;2023-04-25T11:21:50;52.83;;;47.47;;
3811;SDS011;1921;49.368;11.068;2023-04-25T11:24:27;52.37;;;47.03;;
3811;SDS011;1921;49.368;11.068;2023-04-25T11:26:54;53.10;;;47.60;;
3811;SDS011;1921;49.368;11.068;2023-04-25T11:29:23;53.10;;;47.60;;
3811;SDS011;1921;49.368;11.068;2023-04-25T11:31:52;53.23;;;47.53;;
3811;SDS011;1921;49.368;11.068;2023-04-25T11:34:21;52.63;;;47.10;;
3811;SDS011;1921;49.368;11.068;2023-04-25T11:36:47;53.50;;;47.90;;
3811;SDS011;1921;49.368;11.068;2023-04-25T11:39:12;52.73;;;47.20;;
3811;SDS011;1921;49.368;11.068;2023-04-25T11:41:40;53.67;;;48.07;;
3811;SDS011;1921;49.368;11.068;2023-04-25T11:44:07;52.60;;;47.20;;
3811;SDS011;1921;49.368;11.068;2023-04-25T11:46:36;52.43;;;47.00;;
3811;SDS011;1921;49.368;11.068;2023-04-25T11:49:02;52.37;;;46.93;;
3811;SDS011;1921;49.368;11.068;2023-04-25T11:51:29;52.50;;;47.10;;
3811;SDS011;1921;49.368;11.068;2023-04-25T11:53:56;51.73;;;46.50;;
3811;SDS011;1921;49.368;11.068;2023-04-25T11:56:22;51.90;;;46.60;;
3811;SDS011;1921;49.368;11.068;2023-04-25T11:59:01;51.60;;;46.33;;
3811;SDS011;1921;49.368;11.068;2023-04-25T12:01:30;51.07;;;45.97;;
3811;SDS011;1921;49.368;11.068;2023-04-25T12:03:58;51.40;;;46.10;;
3811;SDS011;1921;49.368;11.068;2023-04-25T12:06:51;52.03;;;46.53;;
3811;SDS011;1921;49.368;11.068;2023-04-25T12:09:29;51.80;;;46.50;;
3811;SDS011;1921;49.368;11.068;2023-04-25T12:11:58;52.30;;;46.70;;
3811;SDS011;1921;49.368;11.068;2023-04-25T12:14:33;52.20;;;46.70;;
3811;SDS011;1921;49.368;11.068;2023-04-25T12:17:01;52.40;;;47.00;;
3811;SDS011;1921;49.368;11.068;2023-04-25T12:19:34;52.93;;;47.43;;
3811;SDS011;1921;49.368;11.068;2023-04-25T12:22:02;52.20;;;46.80;;
3811;SDS011;1921;49.368;11.068;2023-04-25T12:24:28;52.20;;;46.73;;
3811;SDS011;1921;49.368;11.068;2023-04-25T12:26:58;53.03;;;47.43;;
3811;SDS011;1921;49.368;11.068;2023-04-25T12:29:30;52.30;;;46.80;;
3811;SDS011;1921;49.368;11.068;2023-04-25T12:31:58;52.30;;;46.90;;
3811;SDS011;1921;49.368;11.068;2023-04-25T12:34:24;52.03;;;46.73;;
3811;SDS011;1921;49.368;11.068;2023-04-25T12:36:51;52.77;;;47.27;;
3811;SDS011;1921;49.368;11.068;2023-04-25T12:39:18;52.17;;;46.77;;
3811;SDS011;1921;49.368;11.068;2023-04-25T12:41:49;52.10;;;46.70;;
3811;SDS011;1921;49.368;11.068;2023-04-25T12:44:19;52.07;;;46.67;;
3811;SDS011;1921;49.368;11.068;2023-04-25T12:46:46;52.70;;;47.20;;
3811;SDS011;1921;49.368;11.068;2023-04-25T12:49:12;52.50;;;47.10;;
3811;SDS011;1921;49.368;11.068;2023-04-25T12:51:39;53.00;;;47.40;;
3811;SDS011;1921;49.368;11.068;2023-04-25T12:54:06;52.57;;;47.10;;
3811;SDS011;1921;49.368;11.068;2023-04-25T12:56:33;51.77;;;46.47;;
3811;SDS011;1921;49.368;11.068;2023-04-25T12:59:00;52.50;;;46.90;;
3811;SDS011;1921;49.368;11.068;2023-04-25T13:01:27;52.20;;;46.90;;
3811;SDS011;1921;49.368;11.068;2023-04-25T13:03:54;51.80;;;46.60;;
3811;SDS011;1921;49.368;11.068;2023-04-25T13:06:20;51.93;;;46.63;;
3811;SDS011;1921;49.368;11.068;2023-04-25T13:08:47;52.20;;;46.90;;
3811;SDS011;1921;49.368;11.068;2023-04-25T13:11:13;51.40;;;45.90;;
3811;SDS011;1921;49.368;11.068;2023-04-25T13:13:42;51.30;;;46.20;;
3811;SDS011;1921;49.368;11.068;2023-04-25T13:16:09;51.10;;;46.00;;
3811;SDS011;1921;49.368;11.068;2023-04-25T13:18:35;51.70;;;46.50;;
3811;SDS011;1921;49.368;11.068;2023-04-25T13:21:01;51.03;;;45.97;;
3811;SDS011;1921;49.368;11.068;2023-04-25T13:23:27;51.80;;;46.50;;
3811;SDS011;1921;49.368;11.068;2023-04-25T13:25:54;52.33;;;46.80;;
3811;SDS011;1921;49.368;11.068;2023-04-25T13:28:22;51.70;;;46.57;;
3811;SDS011;1921;49.368;11.068;2023-04-25T13:30:50;51.10;;;46.00;;
3811;SDS011;1921;49.368;11.068;2023-04-25T13:33:16;51.67;;;46.47;;
3811;SDS011;1921;49.368;11.068;2023-04-25T13:35:42;51.27;;;46.07;;
3811;SDS011;1921;49.368;11.068;2023-04-25T13:38:11;51.90;;;46.70;;
3811;SDS011;1921;49.368;11.068;2023-04-25T13:40:38;51.80;;;46.40;;
3811;SDS011;1921;49.368;11.068;2023-04-25T13:43:04;51.90;;;46.60;;
3811;SDS011;1921;49.368;11.068;2023-04-25T13:45:31;51.90;;;46.37;;
3811;SDS011;1921;49.368;11.068;2023-04-25T13:47:57;52.77;;;47.27;;
3811;SDS011;1921;49.368;11.068;2023-04-25T13:50:23;51.80;;;46.50;;
3811;SDS011;1921;49.368;11.068;2023-04-25T13:52:48;52.20;;;46.90;;
3811;SDS011;1921;49.368;11.068;2023-04-25T13:55:14;51.53;;;46.27;;
3811;SDS011;1921;49.368;11.068;2023-04-25T13:57:40;52.80;;;47.40;;
3811;SDS011;1921;49.368;11.068;2023-04-25T14:00:06;52.80;;;47.10;;
3811;SDS011;1921;49.368;11.068;2023-04-25T14:02:36;52.70;;;47.30;;
3811;SDS011;1921;49.368;11.068;2023-04-25T14:05:03;51.67;;;46.33;;
3811;SDS011;1921;49.368;11.068;2023-04-25T14:07:30;51.70;;;46.50;;
3811;SDS011;1921;49.368;11.068;2023-04-25T14:09:56;51.40;;;46.30;;
3811;SDS011;1921;49.368;11.068;2023-04-25T14:12:23;52.00;;;46.70;;
3811;SDS011;1921;49.368;11.068;2023-04-25T14:14:48;50.90;;;45.80;;
3811;SDS011;1921;49.368;11.068;2023-04-25T14:17:14;50.40;;;45.50;;
3811;SDS011;1921;49.368;11.068;2023-04-25T14:19:40;49.50;;;44.73;;
3811;SDS011;1921;49.368;11.068;2023-04-25T14:22:10;50.50;;;45.60;;
3811;SDS011;1921;49.368;11.068;2023-04-25T14:24:36;51.53;;;46.40;;
3811;SDS011;1921;49.368;11.068;2023-04-25T14:27:03;51.27;;;46.17;;
3811;SDS011;1921;49.368;11.068;2023-04-25T14:29:29;51.67;;;46.40;;
3811;SDS011;1921;49.368;11.068;2023-04-25T14:31:55;51.27;;;46.07;;
3811;SDS011;1921;49.368;11.068;2023-04-25T14:34:22;51.60;;;46.50;;
3811;SDS011;1921;49.368;11.068;2023-04-25T14:36:49;51.00;;;46.00;;
3811;SDS011;1921;49.368;11.068;2023-04-25T14:39:16;56.90;;;46.63;;
3811;SDS011;1921;49.368;11.068;2023-04-25T14:41:42;50.97;;;45.97;;
3811;SDS011;1921;49.368;11.068;2023-04-25T14:44:07;51.10;;;46.10;;
3811;SDS011;1921;49.368;11.068;2023-04-25T14:46:33;50.70;;;45.63;;
3811;SDS011;1921;49.368;11.068;2023-04-25T14:48:59;51.17;;;46.17;;